Time;durP1;ratioP1;P1;durP2;ratioP2;P2;SDS_P1;SDS_P2;PMS_P1;PMS_P2;Temp;Humidity;BMP_temperature;BMP_pressure;BME280_temperature;BME280_humidity;BME280_pressure;Samples;Min_cycle;Max_cycle;Signal;HPM_P1;HPM_P2
2022/05/17 00:02:06;;;;;;;6.82;1.70;;;17.70;99.90;;;;;;5064662;28;20024;-92
2022/05/17 00:04:33;;;;;;;6.15;1.95;;;17.70;99.90;;;;;;5063643;28;20051;-91
2022/05/17 00:07:00;;;;;;;6.85;1.92;;;17.80;99.90;;;;;;5064999;28;20074;-92
2022/05/17 00:09:27;;;;;;;9.85;1.55;;;17.80;99.90;;;;;;5066405;28;20024;-92
2022/05/17 00:11:52;;;;;;;6.72;2.13;;;17.80;99.90;;;;;;5067339;28;20039;-91
2022/05/17 00:14:18;;;;;;;4.32;1.63;;;17.80;99.90;;;;;;5070257;28;20111;-91
2022/05/17 00:16:45;;;;;;;7.43;1.70;;;17.90;99.90;;;;;;5071899;28;20033;-91
2022/05/17 00:19:16;;;;;;;4.18;1.35;;;17.90;99.90;;;;;;5067283;28;20155;-93
2022/05/17 00:21:43;;;;;;;7.97;1.73;;;18.00;99.90;;;;;;5058615;28;20432;-93
2022/05/17 00:24:09;;;;;;;6.95;1.70;;;18.00;99.50;;;;;;5076198;28;20024;-94
2022/05/17 00:26:34;;;;;;;9.45;1.50;;;18.00;99.30;;;;;;5058451;28;20082;-90
2022/05/17 00:29:02;;;;;;;10.07;2.17;;;18.00;99.60;;;;;;5058371;28;20036;-91
2022/05/17 00:31:27;;;;;;;13.00;1.95;;;18.10;99.80;;;;;;5057886;28;20036;-92
2022/05/17 00:33:53;;;;;;;4.78;2.00;;;18.00;99.70;;;;;;5049622;28;20547;-92
2022/05/17 00:36:20;;;;;;;10.15;2.20;;;18.00;99.90;;;;;;5058179;28;20397;-92
2022/05/17 00:38:45;;;;;;;5.40;1.75;;;18.00;99.90;;;;;;5058713;28;20028;-92
2022/05/17 00:41:11;;;;;;;8.50;1.83;;;17.90;99.90;;;;;;5058291;28;20104;-93
2022/05/17 00:46:40;;;;;;;9.87;1.60;;;17.90;99.90;;;;;;5075875;28;20082;-89
2022/05/17 00:49:10;;;;;;;5.55;1.50;;;17.90;99.90;;;;;;5059017;28;20277;-90
2022/05/17 00:51:38;;;;;;;6.70;1.60;;;18.00;99.70;;;;;;5057626;28;20045;-91
2022/05/17 00:54:12;;;;;;;6.38;1.90;;;18.10;99.50;;;;;;5058044;28;20127;-90
2022/05/17 00:56:45;;;;;;;5.65;1.38;;;18.20;98.50;;;;;;5075207;28;20082;-90
2022/05/17 00:59:11;;;;;;;4.97;1.77;;;18.20;98.20;;;;;;5057917;28;20515;-90
2022/05/17 01:01:38;;;;;;;6.70;1.73;;;18.20;98.10;;;;;;5074894;28;20028;-93
2022/05/17 01:04:18;;;;;;;8.13;2.20;;;18.20;98.00;;;;;;5058061;28;20047;-88
2022/05/17 01:07:00;;;;;;;4.85;1.40;;;18.30;98.00;;;;;;5058583;28;20424;-90
2022/05/17 01:09:26;;;;;;;16.90;2.35;;;18.30;98.40;;;;;;5057353;28;20028;-90
2022/05/17 01:11:52;;;;;;;9.73;2.00;;;18.30;99.00;;;;;;5058409;28;20032;-90
2022/05/17 01:17:03;;;;;;;6.57;2.17;;;18.40;99.10;;;;;;5076033;28;20071;-88
2022/05/17 01:19:29;;;;;;;5.55;1.95;;;18.40;99.00;;;;;;5057265;28;20060;-88
2022/05/17 01:21:54;;;;;;;3.90;1.75;;;18.40;99.20;;;;;;5057045;28;20025;-86
2022/05/17 01:24:20;;;;;;;5.13;1.55;;;18.40;98.80;;;;;;5074983;28;20020;-88
2022/05/17 01:26:53;;;;;;;6.95;1.70;;;18.40;98.70;;;;;;5057402;28;20485;-88
2022/05/17 01:29:18;;;;;;;11.13;1.67;;;18.50;97.00;;;;;;5074931;28;20044;-88
2022/05/17 01:31:45;;;;;;;6.22;1.65;;;18.60;96.30;;;;;;5056488;28;20465;-88
2022/05/17 01:34:11;;;;;;;10.25;1.50;;;18.70;95.80;;;;;;5056828;28;20077;-86
2022/05/17 01:36:38;;;;;;;7.13;1.88;;;18.70;95.20;;;;;;5056836;28;20028;-87
2022/05/17 01:39:05;;;;;;;5.57;1.55;;;18.70;94.60;;;;;;5089227;28;20040;-90
2022/05/17 01:41:31;;;;;;;7.00;1.60;;;18.70;94.50;;;;;;5078451;28;20037;-91
2022/05/17 01:43:58;;;;;;;5.43;1.70;;;18.80;94.70;;;;;;5064884;28;20412;-89
2022/05/17 01:46:23;;;;;;;6.68;1.73;;;18.80;95.40;;;;;;5057192;28;20024;-88
2022/05/17 01:48:49;;;;;;;9.50;2.03;;;18.80;95.50;;;;;;5056832;28;20440;-88
2022/05/17 01:51:15;;;;;;;3.92;1.40;;;18.80;96.10;;;;;;5056264;28;20762;-89
2022/05/17 01:53:41;;;;;;;5.53;1.90;;;18.70;96.20;;;;;;5056603;28;20029;-89
2022/05/17 01:56:08;;;;;;;11.55;1.80;;;18.70;96.10;;;;;;5056446;28;20032;-90
2022/05/17 01:58:35;;;;;;;8.65;2.72;;;18.80;95.90;;;;;;5056444;28;20032;-88
2022/05/17 02:01:01;;;;;;;6.75;1.70;;;18.80;95.30;;;;;;5057165;28;20158;-88
2022/05/17 02:03:27;;;;;;;4.55;1.45;;;18.80;94.50;;;;;;5056714;28;20021;-88
2022/05/17 02:05:53;;;;;;;4.93;1.48;;;18.80;93.50;;;;;;5056346;28;20027;-88
2022/05/17 02:08:20;;;;;;;6.65;1.67;;;18.80;93.20;;;;;;5055510;28;20195;-90
2022/05/17 02:10:46;;;;;;;7.55;1.40;;;18.90;93.50;;;;;;5056170;28;20020;-88
2022/05/17 02:13:11;;;;;;;8.80;2.10;;;18.90;94.50;;;;;;5056895;28;20025;-90
2022/05/17 02:15:38;;;;;;;6.45;1.65;;;18.90;95.40;;;;;;5056111;28;20469;-89
2022/05/17 02:18:04;;;;;;;3.30;1.20;;;18.90;94.50;;;;;;5056395;28;20086;-89
2022/05/17 02:20:30;;;;;;;4.88;1.70;;;18.90;93.60;;;;;;5056141;28;20066;-89
2022/05/17 02:22:56;;;;;;;11.00;1.55;;;18.90;92.80;;;;;;5056248;28;20024;-88
2022/05/17 02:25:22;;;;;;;6.30;1.33;;;18.90;91.50;;;;;;5056302;28;20024;-89
2022/05/17 02:27:48;;;;;;;5.30;1.15;;;19.00;91.00;;;;;;5073784;28;20559;-89
2022/05/17 02:30:15;;;;;;;6.05;1.55;;;18.90;90.50;;;;;;5056354;28;20163;-90
2022/05/17 02:32:40;;;;;;;6.18;1.80;;;18.90;89.00;;;;;;5053349;28;20028;-88
2022/05/17 02:35:08;;;;;;;3.60;1.48;;;18.90;90.10;;;;;;5053642;28;20480;-89
2022/05/17 02:37:34;;;;;;;7.40;2.38;;;18.90;91.60;;;;;;5055002;28;20196;-88
2022/05/17 02:40:00;;;;;;;6.22;1.70;;;18.80;92.60;;;;;;5054705;28;20412;-87
2022/05/17 02:42:26;;;;;;;4.60;1.55;;;18.80;93.10;;;;;;5055782;28;20024;-87
2022/05/17 02:44:51;;;;;;;7.65;1.90;;;18.70;93.30;;;;;;5057951;28;20029;-90
2022/05/17 02:47:17;;;;;;;8.30;1.75;;;18.70;93.30;;;;;;5057283;28;20064;-91
2022/05/17 02:49:45;;;;;;;5.97;1.60;;;18.60;93.30;;;;;;5057037;28;20143;-92
2022/05/17 02:52:12;;;;;;;7.88;1.70;;;18.50;93.30;;;;;;5074685;28;20051;-92
2022/05/17 02:54:39;;;;;;;4.93;1.50;;;18.50;93.40;;;;;;5073679;28;20050;-91
2022/05/17 02:57:06;;;;;;;4.60;1.50;;;18.40;94.10;;;;;;5056864;28;20119;-92
2022/05/17 02:59:32;;;;;;;5.90;1.77;;;18.40;94.60;;;;;;5056122;28;20021;-93
2022/05/17 03:01:59;;;;;;;6.75;1.63;;;18.30;95.00;;;;;;5056788;28;20024;-93
2022/05/17 03:04:26;;;;;;;7.57;1.52;;;18.30;92.90;;;;;;5057178;28;20124;-92
2022/05/17 03:06:53;;;;;;;6.30;1.63;;;18.30;91.80;;;;;;5056116;28;20497;-92
2022/05/17 03:09:19;;;;;;;4.07;1.48;;;18.20;91.10;;;;;;5055934;28;20013;-90
2022/05/17 03:11:45;;;;;;;5.10;1.30;;;18.20;90.80;;;;;;5055539;28;20062;-89
2022/05/17 03:14:13;;;;;;;5.00;1.67;;;18.10;90.80;;;;;;5055861;28;20555;-91
2022/05/17 03:16:39;;;;;;;4.80;1.70;;;18.10;90.70;;;;;;5055347;28;20039;-90
2022/05/17 03:19:06;;;;;;;3.65;1.35;;;18.00;91.10;;;;;;5058805;28;20035;-90
2022/05/17 03:21:32;;;;;;;3.88;1.70;;;18.00;92.40;;;;;;5059397;28;20393;-89
2022/05/17 03:23:58;;;;;;;10.02;1.90;;;17.90;94.50;;;;;;5059689;28;20070;-89
2022/05/17 03:26:24;;;;;;;6.18;1.55;;;18.00;95.60;;;;;;5059443;28;20252;-90
2022/05/17 03:28:49;;;;;;;6.30;1.70;;;17.90;95.50;;;;;;5059873;28;20035;-90
2022/05/17 03:31:15;;;;;;;3.85;1.58;;;18.00;94.60;;;;;;5059439;28;20067;-89
2022/05/17 03:33:42;;;;;;;6.07;1.85;;;18.00;94.10;;;;;;5059134;28;20025;-89
2022/05/17 03:36:09;;;;;;;5.50;1.52;;;18.00;94.30;;;;;;5059302;28;20024;-90
2022/05/17 03:38:36;;;;;;;5.55;1.83;;;18.10;95.00;;;;;;5077557;28;20082;-89
2022/05/17 03:41:02;;;;;;;4.90;1.80;;;18.10;94.30;;;;;;5076942;28;20058;-89
2022/05/17 03:43:29;;;;;;;5.30;1.27;;;18.20;92.00;;;;;;5059885;28;20025;-94
2022/05/17 03:45:56;;;;;;;5.93;1.40;;;18.30;91.60;;;;;;5061574;28;20047;-93
2022/05/17 03:48:24;;;;;;;8.68;1.88;;;18.30;90.70;;;;;;5062208;28;20022;-93
2022/05/17 03:50:50;;;;;;;11.80;1.80;;;18.40;90.30;;;;;;5059408;28;20064;-91
2022/05/17 03:53:15;;;;;;;6.53;1.30;;;18.40;91.50;;;;;;5058809;28;20025;-91
2022/05/17 03:55:41;;;;;;;6.20;1.50;;;18.40;91.20;;;;;;5058837;28;20049;-91
2022/05/17 03:58:07;;;;;;;6.82;1.80;;;18.40;91.10;;;;;;5059513;28;20091;-92
2022/05/17 04:00:33;;;;;;;12.35;1.60;;;18.40;91.70;;;;;;5058830;28;20056;-91
2022/05/17 04:02:59;;;;;;;6.60;1.55;;;18.40;91.70;;;;;;5059242;28;20055;-90
2022/05/17 04:05:25;;;;;;;8.10;2.22;;;18.40;92.50;;;;;;5058286;28;20025;-90
2022/05/17 04:07:50;;;;;;;14.75;1.67;;;18.40;92.40;;;;;;5058454;28;20489;-90
2022/05/17 04:10:17;;;;;;;10.13;1.75;;;18.50;91.80;;;;;;5058047;28;20063;-91
2022/05/17 04:12:43;;;;;;;7.43;1.50;;;18.50;91.00;;;;;;5058312;28;20029;-91
2022/05/17 04:15:13;;;;;;;3.17;1.20;;;18.60;90.00;;;;;;5076545;28;20539;-91
2022/05/17 04:17:39;;;;;;;7.47;1.50;;;18.60;88.20;;;;;;5058260;28;20048;-91
2022/05/17 04:20:06;;;;;;;6.95;1.58;;;18.60;87.30;;;;;;5072912;28;20020;-90
2022/05/17 04:22:31;;;;;;;5.43;1.20;;;18.60;87.10;;;;;;5077978;28;20020;-91
2022/05/17 04:24:57;;;;;;;8.65;1.23;;;18.70;84.70;;;;;;5078108;28;20536;-91
2022/05/17 04:27:24;;;;;;;4.65;1.35;;;18.70;84.60;;;;;;5095372;28;20044;-91
2022/05/17 04:29:50;;;;;;;6.55;1.25;;;18.80;81.60;;;;;;5078056;28;20495;-89
2022/05/17 04:32:17;;;;;;;7.80;1.50;;;18.90;81.70;;;;;;5077518;28;20081;-90
2022/05/17 04:34:43;;;;;;;8.98;1.90;;;18.90;82.60;;;;;;5078427;28;20450;-91
2022/05/17 04:37:09;;;;;;;6.90;1.38;;;18.90;83.20;;;;;;5074788;28;20028;-92
2022/05/17 04:39:34;;;;;;;13.98;1.70;;;19.00;84.10;;;;;;5077958;28;20024;-91
2022/05/17 04:42:00;;;;;;;3.10;1.25;;;19.00;84.00;;;;;;5077875;28;20028;-91
2022/05/17 04:44:27;;;;;;;8.02;1.58;;;19.00;82.50;;;;;;5077931;28;20035;-91
2022/05/17 04:46:53;;;;;;;5.15;1.40;;;19.10;74.20;;;;;;5068360;28;20031;-91
2022/05/17 04:49:19;;;;;;;5.45;1.42;;;19.10;75.40;;;;;;5080357;28;20151;-91
2022/05/17 04:51:46;;;;;;;12.60;2.35;;;19.10;76.30;;;;;;5091470;28;20059;-88
2022/05/17 04:54:12;;;;;;;6.95;1.52;;;19.10;73.50;;;;;;5100661;28;20035;-91
2022/05/17 04:56:38;;;;;;;7.93;1.38;;;19.20;74.30;;;;;;5089795;28;20032;-90
2022/05/17 04:59:04;;;;;;;11.07;1.60;;;19.20;72.90;;;;;;5078981;28;20024;-90
2022/05/17 05:01:31;;;;;;;10.55;1.65;;;19.20;73.00;;;;;;5077917;28;20027;-90
2022/05/17 05:03:57;;;;;;;7.07;1.35;;;19.20;74.80;;;;;;5077741;28;20477;-92
2022/05/17 05:06:23;;;;;;;15.32;1.48;;;19.30;73.70;;;;;;5078794;28;20024;-91
2022/05/17 05:08:49;;;;;;;3.63;1.33;;;19.40;72.60;;;;;;5077430;28;20850;-91
2022/05/17 05:11:15;;;;;;;4.05;1.30;;;19.40;73.30;;;;;;5077890;28;20094;-90
2022/05/17 05:13:41;;;;;;;5.25;1.40;;;19.40;72.90;;;;;;5077488;28;20059;-91
2022/05/17 05:16:14;;;;;;;8.13;1.38;;;19.30;72.60;;;;;;5077808;28;20030;-91
2022/05/17 05:18:40;;;;;;;4.55;1.50;;;19.20;74.70;;;;;;5077704;28;20031;-91
2022/05/17 05:21:09;;;;;;;5.65;1.00;;;19.20;70.80;;;;;;5077376;28;20024;-89
2022/05/17 05:23:36;;;;;;;4.93;1.10;;;19.30;70.90;;;;;;5078398;28;20194;-87
2022/05/17 05:26:03;;;;;;;14.38;1.92;;;19.40;70.30;;;;;;5108671;28;20082;-91
2022/05/17 05:28:59;;;;;;;5.57;2.20;;;19.50;75.90;;;;;;5099254;28;20020;-91
2022/05/17 05:31:24;;;;;;;8.57;1.67;;;19.60;84.50;;;;;;5119979;28;20043;-91
2022/05/17 05:33:50;;;;;;;5.07;1.48;;;19.80;88.30;;;;;;5099677;28;20099;-88
2022/05/17 05:36:16;;;;;;;6.32;1.60;;;19.80;87.90;;;;;;5098814;28;20028;-92
2022/05/17 05:38:41;;;;;;;9.07;1.55;;;19.80;82.80;;;;;;5112115;27;20059;-87
2022/05/17 05:41:12;;;;;;;9.02;1.55;;;19.90;84.00;;;;;;5104468;27;20030;-91
2022/05/17 05:43:37;;;;;;;10.23;2.53;;;20.00;85.60;;;;;;5098913;28;20054;-91
2022/05/17 05:46:03;;;;;;;5.25;1.50;;;20.00;84.60;;;;;;5103602;28;20044;-92
2022/05/17 05:48:29;;;;;;;11.15;1.70;;;20.10;81.50;;;;;;5097542;28;20029;-90
2022/05/17 05:50:55;;;;;;;4.75;2.00;;;20.10;81.80;;;;;;5092174;28;20063;-91
2022/05/17 05:53:24;;;;;;;6.15;1.65;;;20.10;83.50;;;;;;5119892;28;20032;-90
2022/05/17 05:56:03;;;;;;;4.97;1.77;;;20.00;84.70;;;;;;5126381;27;20054;-90
2022/05/17 05:58:31;;;;;;;8.25;1.23;;;19.90;80.90;;;;;;5090959;28;20036;-91
2022/05/17 06:00:57;;;;;;;6.60;1.45;;;19.90;70.70;;;;;;5096657;28;20029;-94
2022/05/17 06:03:23;;;;;;;4.82;1.30;;;19.90;70.80;;;;;;5120333;27;20112;-92
2022/05/17 06:05:49;;;;;;;8.45;1.45;;;19.90;70.60;;;;;;5122595;27;20055;-92
2022/05/17 06:08:16;;;;;;;9.23;1.83;;;19.90;70.50;;;;;;5152839;27;20019;-91
2022/05/17 06:10:43;;;;;;;8.57;1.15;;;20.00;70.60;;;;;;5113565;27;20016;-93
2022/05/17 06:13:14;;;;;;;4.95;1.00;;;19.90;70.60;;;;;;5142067;27;20035;-89
2022/05/17 06:15:40;;;;;;;8.10;1.52;;;19.90;69.10;;;;;;5117120;27;20023;-92
2022/05/17 06:18:07;;;;;;;3.78;1.23;;;19.90;68.80;;;;;;5115568;27;20092;-92
2022/05/17 06:20:34;;;;;;;6.95;1.33;;;19.90;68.90;;;;;;5137327;27;20034;-90
2022/05/17 06:23:00;;;;;;;9.73;1.33;;;19.90;69.60;;;;;;5132823;27;20053;-89
2022/05/17 06:25:26;;;;;;;11.30;1.30;;;19.90;68.90;;;;;;5119431;27;20067;-91
2022/05/17 06:27:53;;;;;;;13.80;1.27;;;19.90;67.30;;;;;;5113338;27;20162;-90
2022/05/17 06:30:19;;;;;;;12.07;2.08;;;19.90;68.00;;;;;;5141059;27;20027;-91
2022/05/17 06:32:45;;;;;;;10.73;2.08;;;19.90;68.30;;;;;;5114967;27;20042;-90
2022/05/17 06:35:12;;;;;;;5.45;1.52;;;20.10;69.70;;;;;;5140707;27;20034;-90
2022/05/17 06:37:38;;;;;;;4.75;1.52;;;20.20;66.20;;;;;;5105635;28;20080;-86
2022/05/17 06:40:08;;;;;;;11.52;2.10;;;20.20;66.20;;;;;;5133740;27;20032;-90
2022/05/17 06:42:34;;;;;;;3.97;1.10;;;20.20;67.80;;;;;;5110020;27;20063;-90
2022/05/17 06:45:00;;;;;;;3.67;1.30;;;20.30;67.50;;;;;;5138087;27;20022;-90
2022/05/17 06:47:27;;;;;;;4.30;1.13;;;20.40;67.30;;;;;;5118467;27;20032;-91
2022/05/17 06:49:53;;;;;;;5.05;1.13;;;20.50;64.60;;;;;;5136463;27;20043;-89
2022/05/17 06:52:23;;;;;;;11.52;1.40;;;20.70;64.50;;;;;;5132445;27;20039;-90
2022/05/17 06:54:49;;;;;;;6.22;1.30;;;21.10;62.80;;;;;;5114763;27;20048;-90
2022/05/17 06:57:16;;;;;;;15.63;1.65;;;21.20;62.70;;;;;;5149595;27;20043;-90
2022/05/17 06:59:44;;;;;;;11.00;2.08;;;21.60;63.50;;;;;;5116684;27;20039;-89
2022/05/17 07:02:11;;;;;;;7.82;2.35;;;22.40;63.50;;;;;;5114915;27;20035;-90
2022/05/17 07:04:37;;;;;;;7.80;2.22;;;23.40;63.30;;;;;;5130665;27;20028;-92
2022/05/17 07:07:04;;;;;;;4.68;1.67;;;24.20;61.30;;;;;;5110939;28;20047;-91
2022/05/17 07:09:31;;;;;;;7.07;2.15;;;25.00;59.50;;;;;;5117241;27;20025;-92
2022/05/17 07:14:42;;;;;;;5.75;2.28;;;25.80;52.80;;;;;;5129087;27;20085;-92
2022/05/17 07:17:13;;;;;;;11.93;2.35;;;25.90;50.20;;;;;;5126877;27;20031;-90
2022/05/17 07:19:39;;;;;;;9.20;2.17;;;25.90;50.10;;;;;;5114513;27;20493;-91
2022/05/17 07:22:06;;;;;;;7.32;2.08;;;25.80;48.10;;;;;;5117070;27;20038;-90
2022/05/17 07:24:32;;;;;;;6.20;2.45;;;25.70;46.40;;;;;;5119012;28;20044;-90
2022/05/17 07:27:00;;;;;;;10.20;2.25;;;25.70;45.80;;;;;;5105863;28;20012;-91
2022/05/17 07:29:26;;;;;;;13.27;2.42;;;25.70;47.00;;;;;;5121548;27;20035;-89
2022/05/17 07:31:52;;;;;;;16.48;2.38;;;25.90;47.30;;;;;;5103633;27;20487;-90
2022/05/17 07:34:18;;;;;;;9.02;2.72;;;25.90;46.10;;;;;;5128526;27;20047;-89
2022/05/17 07:36:44;;;;;;;13.75;1.92;;;25.80;47.40;;;;;;5098881;28;20039;-89
2022/05/17 07:39:11;;;;;;;11.32;2.63;;;26.00;46.60;;;;;;5098958;28;20503;-91
2022/05/17 07:41:37;;;;;;;7.70;1.60;;;26.00;45.90;;;;;;5098843;28;20017;-91
2022/05/17 07:44:04;;;;;;;7.53;1.75;;;25.90;45.20;;;;;;5079002;28;20500;-91
2022/05/17 07:46:31;;;;;;;11.77;2.78;;;25.70;44.70;;;;;;5080247;28;20107;-90
2022/05/17 07:48:57;;;;;;;6.25;1.77;;;25.60;45.60;;;;;;5083471;28;20014;-92
2022/05/17 07:51:22;;;;;;;11.45;2.00;;;25.70;46.10;;;;;;5097793;28;20052;-89
2022/05/17 07:53:48;;;;;;;6.70;2.30;;;26.00;45.40;;;;;;5098349;28;20030;-91
2022/05/17 07:56:14;;;;;;;6.05;1.67;;;26.00;43.70;;;;;;5089985;28;20036;-91
2022/05/17 07:58:41;;;;;;;7.22;1.65;;;26.30;44.50;;;;;;5108960;28;20024;-91
2022/05/17 08:01:07;;;;;;;7.75;2.33;;;26.20;44.10;;;;;;5102362;28;20473;-93
2022/05/17 08:03:33;;;;;;;4.43;1.88;;;26.40;43.90;;;;;;5089551;28;20036;-91
2022/05/17 08:06:00;;;;;;;5.38;1.83;;;26.40;43.10;;;;;;5094703;28;20055;-91
2022/05/17 08:08:26;;;;;;;7.93;1.60;;;26.30;42.60;;;;;;5121493;28;20016;-88
2022/05/17 08:10:52;;;;;;;8.43;1.50;;;26.40;41.50;;;;;;5121960;28;20059;-92
2022/05/17 08:13:18;;;;;;;5.57;1.98;;;26.40;41.90;;;;;;5104033;28;20020;-88
2022/05/17 08:15:45;;;;;;;6.75;1.98;;;26.40;42.30;;;;;;5095892;28;20122;-92
2022/05/17 08:18:11;;;;;;;8.43;1.55;;;26.60;42.70;;;;;;5082678;28;20024;-90
2022/05/17 08:20:36;;;;;;;8.23;1.45;;;26.90;42.30;;;;;;5099053;28;20020;-91
2022/05/17 08:23:04;;;;;;;3.58;1.92;;;27.30;41.20;;;;;;5082564;28;20086;-92
2022/05/17 08:28:15;;;;;;;8.52;1.95;;;27.80;40.60;;;;;;5097533;28;20058;-93
2022/05/17 08:30:42;;;;;;;11.30;2.05;;;27.70;40.20;;;;;;5088428;28;20052;-91
2022/05/17 08:33:17;;;;;;;5.68;2.00;;;27.50;40.30;;;;;;5089164;28;20028;-92
2022/05/17 08:35:50;;;;;;;4.68;1.85;;;27.50;40.10;;;;;;5089291;28;20489;-92
2022/05/17 08:38:17;;;;;;;10.52;1.73;;;27.40;39.60;;;;;;5079434;28;20036;-92
2022/05/17 08:41:17;;;;;;;4.40;1.73;;;27.70;41.40;;;;;;5078329;28;20047;-92
2022/05/17 08:43:55;;;;;;;5.82;2.13;;;28.30;40.60;;;;;;5078852;28;20028;-90
2022/05/17 08:46:44;;;;;;;10.68;1.85;;;28.50;40.50;;;;;;5080287;28;20039;-91
2022/05/17 08:49:31;;;;;;;15.68;3.25;;;28.60;40.50;;;;;;5083170;28;20024;-90
2022/05/17 08:51:56;;;;;;;;;;;28.80;41.50;;;;;;5085853;28;20044;-89
2022/05/17 08:54:33;;;;;;;4.53;1.85;;;29.00;39.90;;;;;;5091649;28;19911;-90
2022/05/17 08:57:10;;;;;;;14.02;1.80;;;28.90;38.40;;;;;;5097918;28;20036;-90
2022/05/17 08:59:37;;;;;;;9.05;2.05;;;28.70;38.80;;;;;;5083957;28;20449;-92
2022/05/17 09:02:12;;;;;;;16.13;2.30;;;28.20;40.20;;;;;;5097324;28;20024;-90
2022/05/17 09:04:49;;;;;;;6.15;1.90;;;28.20;40.30;;;;;;5094251;28;20028;-89
2022/05/17 09:07:36;;;;;;;4.82;1.90;;;28.10;40.40;;;;;;5089164;28;20036;-91
2022/05/17 09:10:14;;;;;;;7.75;2.33;;;28.00;41.50;;;;;;5106943;27;20047;-90
2022/05/17 09:12:54;;;;;;;6.57;2.47;;;28.10;42.40;;;;;;5091486;27;20085;-90
2022/05/17 09:15:20;;;;;;;5.90;2.10;;;28.00;42.00;;;;;;5094990;27;20027;-91
2022/05/17 09:17:47;;;;;;;7.47;2.20;;;28.10;42.50;;;;;;5092942;27;20036;-90
2022/05/17 09:20:20;;;;;;;9.18;2.67;;;28.00;43.20;;;;;;5098514;27;20036;-92
2022/05/17 09:22:46;;;;;;;7.70;2.40;;;27.80;42.90;;;;;;5106335;27;20035;-91
2022/05/17 09:25:21;;;;;;;8.63;3.17;;;27.70;43.20;;;;;;5108970;27;20023;-92
2022/05/17 09:27:50;;;;;;;12.63;2.45;;;27.60;43.70;;;;;;5093848;27;20100;-92
2022/05/17 09:30:22;;;;;;;8.50;2.20;;;27.60;44.50;;;;;;5092115;27;20098;-91
2022/05/17 09:32:48;;;;;;;4.40;2.28;;;27.60;43.70;;;;;;5088325;27;20043;-93
2022/05/17 09:35:18;;;;;;;9.90;2.55;;;27.50;44.30;;;;;;5095399;27;20032;-92
2022/05/17 09:37:49;;;;;;;12.68;2.53;;;27.50;45.60;;;;;;5086835;27;20687;-92
2022/05/17 09:40:24;;;;;;;6.18;2.53;;;27.50;44.70;;;;;;5073144;27;20037;-90
2022/05/17 09:43:01;;;;;;;10.10;2.22;;;27.40;45.20;;;;;;5092832;27;20571;-91
2022/05/17 09:46:00;;;;;;;9.35;1.80;;;27.20;43.80;;;;;;5079561;28;20039;-92
2022/05/17 09:48:30;;;;;;;5.05;1.75;;;26.70;44.90;;;;;;5080613;28;20040;-92
2022/05/17 09:53:46;;;;;;;5.32;1.98;;;26.00;45.40;;;;;;5111919;27;20046;-92
2022/05/17 09:56:15;;;;;;;8.13;2.05;;;25.60;46.60;;;;;;5080522;27;20036;-92
2022/05/17 09:58:42;;;;;;;5.30;2.35;;;25.40;46.80;;;;;;5101729;27;20030;-92
2022/05/17 10:01:36;;;;;;;4.32;1.73;;;25.00;47.50;;;;;;5091656;28;20067;-91
2022/05/17 10:04:05;;;;;;;6.32;1.95;;;25.00;48.40;;;;;;5100717;27;20043;-92
2022/05/17 10:06:37;;;;;;;4.78;1.98;;;25.10;49.20;;;;;;5113397;27;20037;-92
2022/05/17 10:09:12;;;;;;;5.65;1.75;;;25.10;47.80;;;;;;5112774;27;20036;-92
2022/05/17 10:11:52;;;;;;;4.13;1.73;;;25.20;47.90;;;;;;5103555;27;20259;-90
2022/05/17 10:14:33;;;;;;;7.15;1.92;;;25.40;48.30;;;;;;5090905;27;20050;-90
2022/05/17 10:17:13;;;;;;;8.98;2.00;;;25.60;48.00;;;;;;5098073;27;20077;-91
2022/05/17 10:19:48;;;;;;;6.00;2.25;;;25.50;47.00;;;;;;5089534;27;20024;-90
2022/05/17 10:22:44;;;;;;;7.20;2.07;;;25.50;47.50;;;;;;5119800;27;20031;-89
2022/05/17 10:25:36;;;;;;;6.72;1.70;;;25.40;48.00;;;;;;5104910;27;20043;-91
2022/05/17 10:28:16;;;;;;;10.15;2.25;;;25.20;47.50;;;;;;5102772;27;20032;-88
2022/05/17 10:31:15;;;;;;;7.72;2.28;;;25.00;46.90;;;;;;5104922;27;20578;-91
2022/05/17 10:34:16;;;;;;;9.05;1.85;;;24.90;45.90;;;;;;5106278;27;20479;-87
2022/05/17 10:36:50;;;;;;;5.38;2.08;;;24.70;44.10;;;;;;5090356;27;20043;-89
2022/05/17 10:39:43;;;;;;;6.80;1.60;;;24.50;44.60;;;;;;5079428;27;20082;-90
2022/05/17 10:42:09;;;;;;;9.07;3.38;;;24.40;44.80;;;;;;5093293;27;20039;-92
2022/05/17 10:44:44;;;;;;;8.35;5.18;;;24.40;45.70;;;;;;5094803;27;20410;-93
2022/05/17 10:47:17;;;;;;;5.13;2.38;;;24.30;45.80;;;;;;5079602;27;20488;-93
2022/05/17 10:50:15;;;;;;;15.25;1.98;;;24.40;45.50;;;;;;5082325;27;20138;-92
2022/05/17 10:52:44;;;;;;;5.43;1.65;;;24.40;45.50;;;;;;5088811;27;20048;-92
2022/05/17 10:55:13;;;;;;;3.45;1.70;;;24.30;45.20;;;;;;5104465;27;20639;-89
2022/05/17 10:57:54;;;;;;;7.80;2.22;;;24.20;44.90;;;;;;5098325;27;20104;-90
2022/05/17 11:00:32;;;;;;;8.18;1.67;;;24.20;44.50;;;;;;5098124;27;20062;-93
2022/05/17 11:03:22;;;;;;;7.22;1.15;;;24.10;44.80;;;;;;5104416;27;20032;-90
2022/05/17 11:06:11;;;;;;;7.13;1.38;;;24.10;43.00;;;;;;5093531;27;20147;-89
2022/05/17 11:09:07;;;;;;;4.57;1.02;;;23.80;42.60;;;;;;5079186;28;20068;-90
2022/05/17 11:12:08;;;;;;;8.23;1.33;;;23.60;42.70;;;;;;5093128;27;20051;-90
2022/05/17 11:14:50;;;;;;;5.03;1.20;;;23.40;42.80;;;;;;5106726;28;20100;-91
2022/05/17 11:17:37;;;;;;;2.97;1.13;;;23.30;43.30;;;;;;5113224;27;20075;-90
2022/05/17 11:20:09;;;;;;;4.60;1.45;;;23.20;42.70;;;;;;5111124;28;20023;-90
2022/05/17 11:22:48;;;;;;;6.60;1.73;;;23.00;42.50;;;;;;5112583;27;20040;-89
2022/05/17 11:25:19;;;;;;;6.47;1.45;;;22.90;42.80;;;;;;5092693;27;20479;-89
2022/05/17 11:28:16;;;;;;;8.07;1.50;;;22.60;42.00;;;;;;5123072;27;20092;-91
2022/05/17 11:30:57;;;;;;;2.85;1.05;;;22.40;43.00;;;;;;5120462;27;20029;-90
2022/05/17 11:33:36;;;;;;;7.45;1.92;;;22.20;44.40;;;;;;5105533;27;20043;-91
2022/05/17 11:36:26;;;;;;;12.85;2.05;;;22.20;45.70;;;;;;5092703;28;20529;-91
2022/05/17 11:38:52;;;;;;;4.15;1.42;;;22.10;45.20;;;;;;5107912;27;20225;-92
2022/05/17 11:41:21;;;;;;;14.50;1.40;;;22.00;45.70;;;;;;5101100;27;20031;-92
2022/05/17 11:44:11;;;;;;;6.43;1.65;;;22.00;46.00;;;;;;5121108;27;20427;-77
2022/05/17 11:46:48;;;;;;;6.95;1.80;;;22.20;45.90;;;;;;5099404;27;20119;-94
2022/05/17 11:49:17;;;;;;;6.00;2.13;;;22.10;46.00;;;;;;5104827;28;20016;-93
2022/05/17 11:51:57;;;;;;;9.00;2.15;;;21.90;46.60;;;;;;5106747;28;20048;-93
2022/05/17 11:54:40;;;;;;;4.68;1.60;;;21.90;47.80;;;;;;5092831;28;20055;-93
2022/05/17 11:57:09;;;;;;;8.80;2.25;;;21.80;48.60;;;;;;5095995;28;20036;-93
2022/05/17 11:59:52;;;;;;;13.20;2.10;;;21.60;49.70;;;;;;5092657;28;20522;-93
2022/05/17 12:02:18;;;;;;;6.35;1.98;;;21.70;50.00;;;;;;5089247;28;20169;-94
2022/05/17 12:04:46;;;;;;;6.18;1.88;;;21.70;50.50;;;;;;5087169;28;20047;-93
2022/05/17 12:07:26;;;;;;;10.15;2.08;;;21.70;50.30;;;;;;5093598;28;20020;-94
2022/05/17 12:09:58;;;;;;;9.02;2.00;;;21.70;52.50;;;;;;5094637;28;20024;-94
2022/05/17 12:12:41;;;;;;;12.00;1.90;;;21.70;51.20;;;;;;5092530;28;20540;-93
2022/05/17 12:15:10;;;;;;;7.93;2.03;;;21.70;51.40;;;;;;5108897;28;20081;-93
2022/05/17 12:18:16;;;;;;;7.72;2.03;;;21.70;51.70;;;;;;5105868;28;20023;-94
2022/05/17 12:20:56;;;;;;;5.32;2.22;;;21.60;53.60;;;;;;5056505;28;20028;-93
2022/05/17 12:23:32;;;;;;;4.88;2.35;;;21.60;53.90;;;;;;5090653;28;20016;-94
2022/05/17 12:26:18;;;;;;;19.35;3.05;;;21.70;54.10;;;;;;5094616;28;20032;-92
2022/05/17 12:28:51;;;;;;;6.53;2.58;;;21.70;54.30;;;;;;5086037;28;20504;-93
2022/05/17 12:31:26;;;;;;;6.03;1.70;;;21.70;52.40;;;;;;5096951;28;20103;-92
2022/05/17 12:33:53;;;;;;;5.25;1.80;;;21.70;51.20;;;;;;5085168;28;20024;-91
2022/05/17 12:36:23;;;;;;;5.25;1.48;;;21.60;51.00;;;;;;5088070;28;20028;-94
2022/05/17 12:44:38;;;;;;;7.25;1.58;;;21.50;52.20;;;;;;5115549;28;20035;-92
2022/05/17 12:47:09;;;;;;;5.10;1.50;;;21.60;52.40;;;;;;5079612;28;20036;-93
2022/05/17 12:49:38;;;;;;;7.93;1.70;;;21.60;52.40;;;;;;5058238;28;20032;-94
2022/05/17 12:52:39;;;;;;;5.97;1.92;;;21.70;53.90;;;;;;5061511;28;20045;-94
2022/05/17 12:55:11;;;;;;;11.07;6.00;;;21.80;55.60;;;;;;5036108;28;20040;-94
2022/05/17 12:57:39;;;;;;;7.50;2.20;;;21.80;54.90;;;;;;5059294;28;20098;-93
2022/05/17 13:00:12;;;;;;;6.00;1.42;;;21.70;54.30;;;;;;5062287;28;20481;-94
2022/05/17 13:02:48;;;;;;;7.75;1.38;;;21.60;53.30;;;;;;5064794;28;20058;-94
2022/05/17 13:05:46;;;;;;;5.00;1.17;;;21.50;53.20;;;;;;5059635;28;20020;-94
2022/05/17 13:08:14;;;;;;;3.30;1.30;;;21.50;53.90;;;;;;5077681;28;20060;-93
2022/05/17 13:10:42;;;;;;;4.68;1.40;;;21.50;54.70;;;;;;5068376;28;20035;-94
2022/05/17 13:13:20;;;;;;;8.13;1.80;;;21.50;56.50;;;;;;5068771;28;20036;-94
2022/05/17 13:15:55;;;;;;;5.43;1.63;;;21.50;57.50;;;;;;5058270;28;20025;-94
2022/05/17 13:18:23;;;;;;;5.50;1.40;;;21.50;57.00;;;;;;5059627;28;20035;-94
2022/05/17 13:20:50;;;;;;;3.95;0.98;;;21.40;57.00;;;;;;5059205;28;20522;-93
2022/05/17 13:23:21;;;;;;;4.40;1.80;;;21.40;57.30;;;;;;5057910;28;20054;-95